Archival Weather

Doha Intl Airport

Doha Intl Airport, Qatar (OTBD)

Report from: Thursday, September 21, 2023 11:30 AM +03
Current time: Saturday, February 24, 2024 7:25 PM +03

Current weather – Weather history – Daily summaries
Weather forecast

Temperature41.0°C (105.8°F)
Heat index42.8°C (109.0°F)
Dew point17.0°C (62.6°F)
Winds 5 kts (2.6 m/s, 5.8 mph) Vrb
Winds variableWinds variable from West-Northwest (290°) to Northeast (50°)
Clouds Sky clear
Altimeter29.68 in.Hg (1005 mB)
Relative humidity25 %
Density altitude3,456 ft. (1,053 m)
Remarks Ceiling and visibility OK
No significant changes expected in the next two hours
Flight conditions Visual Meteorological Conditions
Raw dataOTBD 210830Z 36005KT 290V050 CAVOK 41/17 Q1005 NOSIG
An error has occurred. This application may no longer respond until reloaded. Reload 🗙